createdAt,value
2018-09-12T00:02:08.713Z,16.50
2018-09-12T00:04:37.451Z,16.60
2018-09-12T00:07:05.935Z,16.60
2018-09-12T00:09:34.170Z,16.70
2018-09-12T00:12:02.402Z,16.70
2018-09-12T00:14:30.866Z,16.60
2018-09-12T00:16:59.121Z,16.60
2018-09-12T00:19:27.574Z,16.50
2018-09-12T00:21:56.357Z,16.50
2018-09-12T00:24:24.603Z,16.60
2018-09-12T00:26:52.858Z,16.60
2018-09-12T00:29:21.110Z,16.50
2018-09-12T00:31:49.882Z,16.50
2018-09-12T00:34:18.152Z,16.40
2018-09-12T00:36:46.390Z,16.30
2018-09-12T00:39:15.481Z,16.30
2018-09-12T00:41:44.142Z,16.20
2018-09-12T00:44:12.361Z,16.20
2018-09-12T00:46:41.334Z,16.20
2018-09-12T00:49:09.565Z,16.20
2018-09-12T00:51:39.119Z,16.20
2018-09-12T00:54:07.452Z,16.20
2018-09-12T00:56:42.538Z,16.20
2018-09-12T00:59:11.670Z,16.20
2018-09-12T01:01:39.974Z,16.10
2018-09-12T01:04:09.169Z,16.10
2018-09-12T01:06:37.943Z,16.10
2018-09-12T01:09:06.742Z,16.10
2018-09-12T01:11:35.555Z,16.10
2018-09-12T01:14:03.898Z,16.10
2018-09-12T01:16:33.949Z,16.10
2018-09-12T01:19:02.275Z,16.10
2018-09-12T01:21:30.589Z,16.00
2018-09-12T01:23:59.136Z,15.90
2018-09-12T01:26:27.503Z,15.80
2018-09-12T01:28:55.945Z,15.80
2018-09-12T01:31:24.445Z,15.80
2018-09-12T01:33:52.681Z,15.80
2018-09-12T01:36:20.951Z,15.80
2018-09-12T01:38:50.347Z,15.80
2018-09-12T01:41:19.091Z,15.80
2018-09-12T01:43:47.609Z,15.70
2018-09-12T01:46:16.323Z,15.80
2018-09-12T01:48:44.862Z,15.80
2018-09-12T01:51:19.462Z,15.80
2018-09-12T01:53:47.725Z,15.80
2018-09-12T01:56:15.969Z,15.80
2018-09-12T01:58:44.235Z,15.80
2018-09-12T02:01:12.496Z,15.80
2018-09-12T02:03:41.414Z,15.70
2018-09-12T02:06:10.385Z,15.70
2018-09-12T02:08:38.634Z,15.50
2018-09-12T02:11:06.946Z,15.50
2018-09-12T02:13:35.244Z,15.50
2018-09-12T02:16:04.034Z,15.60
2018-09-12T02:18:32.297Z,15.60
2018-09-12T02:21:00.531Z,15.50
2018-09-12T02:23:28.789Z,15.50
2018-09-12T02:25:57.089Z,15.60
2018-09-12T02:28:30.694Z,15.50
2018-09-12T02:30:58.978Z,15.60
2018-09-12T02:33:27.306Z,15.40
2018-09-12T02:36:01.020Z,15.40
2018-09-12T02:38:30.290Z,15.30
2018-09-12T02:40:59.376Z,15.40
2018-09-12T02:43:27.632Z,15.30
2018-09-12T02:45:56.112Z,15.40
2018-09-12T02:48:24.376Z,15.40
2018-09-12T02:50:58.310Z,15.50
2018-09-12T02:53:26.830Z,15.50
2018-09-12T02:55:55.078Z,15.40
2018-09-12T02:58:23.366Z,15.30
2018-09-12T03:00:59.062Z,15.40
2018-09-12T03:03:27.502Z,15.30
2018-09-12T03:05:56.591Z,15.20
2018-09-12T03:08:24.861Z,15.20
2018-09-12T03:10:53.140Z,15.30
2018-09-12T03:13:21.639Z,15.20
2018-09-12T03:15:49.938Z,15.20
2018-09-12T03:18:18.858Z,15.30
2018-09-12T03:20:47.201Z,15.20
2018-09-12T03:23:15.398Z,15.10
2018-09-12T03:25:43.670Z,15.00
2018-09-12T03:28:11.941Z,15.10
2018-09-12T03:30:41.024Z,15.10
2018-09-12T03:33:09.362Z,15.10
2018-09-12T03:35:37.725Z,15.10
2018-09-12T03:38:06.658Z,15.10
2018-09-12T03:40:35.412Z,15.10
2018-09-12T03:43:04.075Z,15.10
2018-09-12T03:45:32.326Z,15.10
2018-09-12T03:48:00.640Z,15.10
2018-09-12T03:50:28.889Z,15.10
2018-09-12T03:52:57.719Z,15.00
2018-09-12T03:55:25.992Z,15.00
2018-09-12T03:57:54.283Z,15.00
2018-09-12T04:00:22.682Z,14.90
2018-09-12T04:05:32.590Z,14.90
2018-09-12T04:08:00.830Z,14.90
2018-09-12T04:10:29.083Z,14.90
2018-09-12T04:12:57.870Z,14.90
2018-09-12T04:15:26.169Z,14.90
2018-09-12T04:17:55.053Z,14.90
2018-09-12T04:20:23.314Z,14.90
2018-09-12T04:22:51.615Z,14.90
2018-09-12T04:25:20.006Z,14.80
2018-09-12T04:27:48.335Z,14.90
2018-09-12T04:30:16.712Z,14.90
2018-09-12T04:32:45.141Z,14.90
2018-09-12T04:35:14.463Z,14.80
2018-09-12T04:37:48.703Z,14.80
2018-09-12T04:40:17.593Z,14.80
2018-09-12T04:42:45.922Z,14.80
2018-09-12T04:45:14.123Z,14.80
2018-09-12T04:47:42.394Z,14.80
2018-09-12T04:50:10.646Z,14.70
2018-09-12T04:52:39.394Z,14.70
2018-09-12T04:55:07.990Z,14.70
2018-09-12T04:57:36.869Z,14.60
2018-09-12T05:00:05.118Z,14.60
2018-09-12T05:02:33.435Z,14.60
2018-09-12T05:05:01.714Z,14.70
2018-09-12T05:07:30.532Z,14.70
2018-09-12T05:09:58.819Z,14.70
2018-09-12T05:12:27.481Z,14.80
2018-09-12T05:14:55.945Z,14.80
2018-09-12T05:17:24.218Z,14.70
2018-09-12T05:19:52.537Z,14.80
2018-09-12T05:22:20.836Z,14.80
2018-09-12T05:24:49.551Z,14.80
2018-09-12T05:27:17.815Z,14.90
2018-09-12T05:29:46.135Z,14.90
2018-09-12T05:32:14.502Z,14.90
2018-09-12T05:34:42.762Z,15.00
2018-09-12T05:37:11.110Z,15.10
2018-09-12T05:39:40.007Z,15.10
2018-09-12T05:42:08.302Z,15.20
2018-09-12T05:44:36.562Z,15.20
2018-09-12T05:47:04.874Z,15.40
2018-09-12T05:49:33.133Z,15.50
2018-09-12T05:52:01.953Z,15.60
2018-09-12T05:54:30.946Z,15.70
2018-09-12T05:56:59.226Z,16.00
2018-09-12T05:59:27.494Z,16.20
2018-09-12T06:02:02.275Z,16.20
2018-09-12T06:04:32.021Z,16.20
2018-09-12T06:07:00.997Z,16.50
2018-09-12T06:09:29.560Z,16.70
2018-09-12T06:11:57.838Z,16.80
2018-09-12T06:14:26.528Z,17.10
2018-09-12T06:16:54.851Z,17.30
2018-09-12T06:19:23.149Z,17.50
2018-09-12T06:21:51.846Z,17.60
2018-09-12T06:24:20.114Z,17.70
2018-09-12T06:26:48.395Z,17.90
2018-09-12T06:29:16.818Z,18.10
2018-09-12T06:31:45.170Z,18.40
2018-09-12T06:34:13.547Z,18.30
2018-09-12T06:36:41.986Z,18.40
2018-09-12T06:39:12.168Z,18.30
2018-09-12T06:41:40.907Z,18.10
2018-09-12T06:44:09.380Z,18.10
2018-09-12T06:46:37.758Z,18.20
2018-09-12T06:49:07.053Z,18.00
2018-09-12T06:51:35.581Z,18.10
2018-09-12T06:54:04.034Z,17.90
2018-09-12T06:56:33.245Z,18.00
2018-09-12T06:59:01.539Z,18.10
2018-09-12T07:01:29.812Z,18.20
2018-09-12T07:03:58.229Z,18.30
2018-09-12T07:06:27.194Z,18.40
2018-09-12T07:08:55.839Z,18.60
2018-09-12T07:11:24.629Z,18.70
2018-09-12T07:13:53.429Z,19.00
2018-09-12T07:16:21.705Z,19.00
2018-09-12T07:18:50.039Z,19.40
2018-09-12T07:21:18.353Z,19.70
2018-09-12T07:23:46.727Z,19.90
2018-09-12T07:26:15.066Z,20.20
2018-09-12T07:28:43.357Z,20.70
2018-09-12T07:31:11.639Z,20.70
2018-09-12T07:33:39.920Z,21.10
2018-09-12T07:36:08.160Z,21.40
2018-09-12T07:38:43.755Z,22.10
2018-09-12T07:41:12.318Z,22.20
2018-09-12T07:43:40.595Z,22.90
2018-09-12T07:46:09.227Z,23.40
2018-09-12T07:48:37.514Z,23.30
2018-09-12T07:51:06.300Z,24.50
2018-09-12T07:53:34.725Z,25.00
2018-09-12T07:56:03.079Z,25.10
2018-09-12T07:58:31.301Z,24.90
2018-09-12T08:01:07.385Z,25.70
2018-09-12T08:03:35.695Z,26.20
2018-09-12T08:06:04.348Z,26.40
2018-09-12T08:08:32.587Z,26.90
2018-09-12T08:11:00.834Z,27.20
2018-09-12T08:13:29.289Z,27.60
2018-09-12T08:15:57.554Z,27.90
2018-09-12T08:18:25.798Z,28.10
2018-09-12T08:20:54.062Z,28.50
2018-09-12T08:23:22.385Z,29.30
2018-09-12T08:25:50.713Z,29.50
2018-09-12T08:28:19.487Z,30.10
2018-09-12T08:30:47.753Z,30.00
2018-09-12T08:33:16.051Z,29.70
2018-09-12T08:35:44.295Z,30.10
2018-09-12T08:38:12.936Z,29.00
2018-09-12T08:40:41.594Z,29.30
2018-09-12T08:43:09.854Z,30.40
2018-09-12T08:45:38.689Z,30.60
2018-09-12T08:48:07.038Z,30.30
2018-09-12T08:50:35.512Z,31.00
2018-09-12T08:53:04.011Z,30.90
2018-09-12T08:55:32.234Z,31.30
2018-09-12T08:58:00.753Z,31.10
2018-09-12T09:00:35.935Z,31.20
2018-09-12T09:03:06.354Z,31.40
2018-09-12T09:05:35.286Z,31.40
2018-09-12T09:08:03.738Z,31.70
2018-09-12T09:10:32.037Z,31.80
2018-09-12T09:13:00.904Z,32.30
2018-09-12T09:15:29.142Z,32.00
2018-09-12T09:17:57.376Z,31.50
2018-09-12T09:20:26.093Z,31.10
2018-09-12T09:22:55.165Z,31.10
2018-09-12T09:25:25.245Z,31.70
2018-09-12T09:27:54.627Z,32.20
2018-09-12T09:30:26.820Z,33.20
2018-09-12T09:32:55.133Z,33.80
2018-09-12T09:35:23.881Z,33.90
2018-09-12T09:37:52.502Z,33.70
2018-09-12T09:40:21.268Z,33.70
2018-09-12T09:42:49.565Z,34.70
2018-09-12T09:45:25.557Z,34.50
2018-09-12T09:47:53.874Z,34.40
2018-09-12T09:50:22.359Z,34.50
2018-09-12T09:52:50.840Z,34.40
2018-09-12T09:55:19.091Z,34.80
2018-09-12T09:57:47.316Z,34.00
2018-09-12T10:00:21.227Z,34.10
2018-09-12T10:02:54.650Z,34.40
2018-09-12T10:08:05.226Z,34.40
2018-09-12T10:10:33.502Z,35.10
2018-09-12T10:13:02.185Z,35.60
2018-09-12T10:15:30.430Z,36.70
2018-09-12T10:17:58.687Z,36.70
2018-09-12T10:20:26.997Z,36.50
2018-09-12T10:22:55.790Z,36.60
2018-09-12T10:25:24.010Z,36.40
2018-09-12T10:27:52.280Z,36.00
2018-09-12T10:30:20.566Z,36.30
2018-09-12T10:32:49.107Z,36.90
2018-09-12T10:35:17.349Z,36.80
2018-09-12T10:37:50.054Z,36.50
2018-09-12T10:40:18.654Z,36.60
2018-09-12T10:42:47.264Z,36.90
2018-09-12T10:45:15.946Z,36.20
2018-09-12T10:47:44.286Z,36.20
2018-09-12T10:50:12.639Z,35.80
2018-09-12T10:52:41.314Z,36.50
2018-09-12T10:55:09.538Z,36.50
2018-09-12T10:57:38.102Z,35.90
2018-09-12T11:00:07.283Z,34.90
2018-09-12T11:02:35.533Z,35.80
2018-09-12T11:05:03.841Z,35.20
2018-09-12T11:07:32.705Z,34.80
2018-09-12T11:10:01.143Z,34.40
2018-09-12T11:12:29.387Z,34.90
2018-09-12T11:14:58.145Z,34.50
2018-09-12T11:17:26.965Z,34.20
2018-09-12T11:19:55.190Z,34.30
2018-09-12T11:22:23.968Z,34.00
2018-09-12T11:24:52.236Z,33.10
2018-09-12T11:27:21.088Z,33.10
2018-09-12T11:29:50.605Z,32.60
2018-09-12T11:32:18.879Z,32.30
2018-09-12T11:34:47.407Z,32.10
2018-09-12T11:37:15.642Z,32.20
2018-09-12T11:39:44.233Z,32.20
2018-09-12T11:42:12.464Z,31.70
2018-09-12T11:44:40.689Z,31.70
2018-09-12T11:47:08.950Z,31.30
2018-09-12T11:49:37.682Z,31.10
2018-09-12T11:52:06.412Z,31.10
2018-09-12T11:54:34.652Z,31.30
2018-09-12T11:57:02.885Z,30.90
2018-09-12T11:59:31.797Z,30.40
2018-09-12T12:02:00.150Z,30.80
2018-09-12T12:04:28.357Z,30.80
2018-09-12T12:06:56.695Z,30.50
2018-09-12T12:09:24.962Z,30.70
2018-09-12T12:11:53.494Z,30.70
2018-09-12T12:14:22.162Z,30.80
2018-09-12T12:16:50.804Z,30.80
2018-09-12T12:19:19.750Z,30.50
2018-09-12T12:24:28.811Z,30.30
2018-09-12T12:26:57.060Z,30.50
2018-09-12T12:29:25.363Z,30.40
2018-09-12T12:31:53.626Z,30.40
2018-09-12T12:34:22.477Z,30.20
2018-09-12T12:36:50.730Z,30.20
2018-09-12T12:39:19.146Z,30.20
2018-09-12T12:41:47.622Z,30.30
2018-09-12T12:44:16.282Z,30.30
2018-09-12T12:46:44.938Z,30.50
2018-09-12T12:49:13.678Z,30.30
2018-09-12T12:51:42.405Z,30.10
2018-09-12T12:54:10.659Z,30.20
2018-09-12T12:56:38.920Z,30.20
2018-09-12T12:59:07.423Z,30.10
2018-09-12T13:01:35.726Z,30.20
2018-09-12T13:04:04.058Z,30.40
2018-09-12T13:06:32.481Z,30.90
2018-09-12T13:09:00.919Z,31.60
2018-09-12T13:11:29.818Z,32.40
2018-09-12T13:13:58.418Z,32.90
2018-09-12T13:16:26.889Z,33.80
2018-09-12T13:18:55.164Z,34.70
2018-09-12T13:21:23.445Z,34.90
2018-09-12T13:23:52.052Z,36.00
2018-09-12T13:26:20.305Z,37.00
2018-09-12T13:28:49.130Z,38.20
2018-09-12T13:31:17.441Z,37.70
2018-09-12T13:33:45.718Z,37.90
2018-09-12T13:36:14.056Z,38.40
2018-09-12T13:38:44.098Z,38.80
2018-09-12T13:41:12.341Z,39.10
2018-09-12T13:43:40.575Z,39.10
2018-09-12T13:46:08.871Z,39.20
2018-09-12T13:48:37.622Z,39.60
2018-09-12T13:51:07.258Z,39.20
2018-09-12T13:53:36.158Z,38.00
2018-09-12T13:56:04.421Z,36.80
2018-09-12T13:58:32.938Z,35.60
2018-09-12T14:01:01.190Z,34.80
2018-09-12T14:03:29.442Z,33.60
2018-09-12T14:05:57.694Z,32.90
2018-09-12T14:08:25.925Z,32.20
2018-09-12T14:10:54.713Z,31.60
2018-09-12T14:13:23.310Z,30.80
2018-09-12T14:15:51.850Z,30.30
2018-09-12T14:18:20.630Z,30.00
2018-09-12T14:20:48.887Z,29.80
2018-09-12T14:23:17.633Z,29.50
2018-09-12T14:25:45.955Z,29.40
2018-09-12T14:28:14.198Z,29.30
2018-09-12T14:30:42.473Z,29.20
2018-09-12T14:33:11.025Z,29.20
2018-09-12T14:35:39.319Z,28.90
2018-09-12T14:38:08.046Z,28.60
2018-09-12T14:40:36.633Z,28.50
2018-09-12T14:43:05.240Z,28.50
2018-09-12T14:45:33.493Z,28.50
2018-09-12T14:48:01.824Z,28.40
2018-09-12T14:50:30.123Z,28.40
2018-09-12T14:52:58.597Z,28.20
2018-09-12T14:55:26.885Z,28.20
2018-09-12T14:57:55.236Z,28.10
2018-09-12T15:00:26.349Z,28.00
2018-09-12T15:02:55.382Z,27.90
2018-09-12T15:05:24.375Z,28.00
2018-09-12T15:07:52.662Z,28.10
2018-09-12T15:10:21.251Z,28.00
2018-09-12T15:12:50.089Z,27.90
2018-09-12T15:15:18.421Z,27.90
2018-09-12T15:17:46.904Z,27.80
2018-09-12T15:20:16.230Z,27.80
2018-09-12T15:22:45.118Z,27.70
2018-09-12T15:25:14.812Z,27.60
2018-09-12T15:27:43.078Z,27.50
2018-09-12T15:30:11.683Z,27.40
2018-09-12T15:32:40.154Z,27.40
2018-09-12T15:35:08.443Z,27.30
2018-09-12T15:37:36.749Z,27.20
2018-09-12T15:40:05.235Z,27.20
2018-09-12T15:42:34.570Z,27.20
2018-09-12T15:45:02.835Z,27.10
2018-09-12T15:47:31.076Z,27.10
2018-09-12T15:49:59.350Z,27.10
2018-09-12T15:52:28.042Z,27.00
2018-09-12T15:54:56.374Z,26.90
2018-09-12T15:57:25.182Z,27.00
2018-09-12T15:59:53.754Z,26.80
2018-09-12T16:02:22.020Z,26.70
2018-09-12T16:04:50.337Z,26.70
2018-09-12T16:07:18.599Z,26.70
2018-09-12T16:09:46.872Z,26.80
2018-09-12T16:12:15.202Z,26.90
2018-09-12T16:14:44.027Z,26.80
2018-09-12T16:17:12.315Z,26.70
2018-09-12T16:19:40.561Z,26.70
2018-09-12T16:22:15.422Z,26.70
2018-09-12T16:27:23.157Z,26.60
2018-09-12T16:29:51.458Z,26.40
2018-09-12T16:32:20.209Z,26.40
2018-09-12T16:34:48.595Z,26.30
2018-09-12T16:37:16.853Z,26.20
2018-09-12T16:39:45.393Z,26.20
2018-09-12T16:42:13.938Z,26.10
2018-09-12T16:44:42.598Z,26.00
2018-09-12T16:47:12.027Z,26.00
2018-09-12T16:49:40.662Z,26.00
2018-09-12T16:52:09.314Z,25.90
2018-09-12T16:54:37.558Z,25.80
2018-09-12T16:57:06.014Z,25.70
2018-09-12T16:59:34.264Z,25.70
2018-09-12T17:02:02.544Z,25.60
2018-09-12T17:04:30.818Z,25.50
2018-09-12T17:06:59.086Z,25.40
2018-09-12T17:09:27.453Z,25.40
2018-09-12T17:11:55.922Z,25.20
2018-09-12T17:14:24.536Z,25.20
2018-09-12T17:16:53.029Z,25.20
2018-09-12T17:19:21.342Z,25.10
2018-09-12T17:21:49.640Z,25.00
2018-09-12T17:24:20.897Z,24.90
2018-09-12T17:26:49.136Z,24.90
2018-09-12T17:29:17.365Z,24.90
2018-09-12T17:31:45.918Z,24.70
2018-09-12T17:34:14.447Z,24.70
2018-09-12T19:30:55.927Z,22.20
2018-09-12T19:33:24.474Z,22.00
2018-09-12T19:35:52.831Z,22.00
2018-09-12T19:38:22.728Z,21.90
2018-09-12T19:40:51.430Z,21.90
2018-09-12T19:43:19.663Z,21.90
2018-09-12T19:45:47.931Z,21.70
2018-09-12T19:50:43.672Z,21.70
2018-09-12T19:53:12.388Z,21.60
2018-09-12T19:55:41.358Z,21.60
2018-09-12T19:58:09.601Z,21.50
2018-09-12T20:03:05.178Z,21.50
2018-09-12T20:05:34.024Z,21.40
2018-09-12T20:08:02.247Z,21.30
2018-09-12T20:10:30.523Z,21.40
2018-09-12T20:12:59.329Z,21.30
2018-09-12T20:15:27.565Z,21.30
2018-09-12T20:17:55.839Z,21.20
2018-09-12T20:20:24.093Z,21.20
2018-09-12T20:22:52.942Z,21.10
2018-09-12T20:25:21.246Z,21.10
2018-09-12T20:27:49.510Z,21.10
2018-09-12T20:30:18.353Z,21.10
2018-09-12T20:32:47.058Z,21.00
2018-09-12T20:35:15.298Z,21.00
2018-09-12T20:37:49.411Z,20.70
2018-09-12T20:40:18.247Z,20.70
2018-09-12T20:42:46.974Z,20.60
2018-09-12T20:47:49.688Z,20.60
2018-09-12T20:50:18.197Z,20.70
2018-09-12T20:52:47.044Z,20.70
2018-09-12T20:55:15.305Z,20.70
2018-09-12T20:57:44.305Z,20.60
2018-09-12T21:00:12.563Z,20.50
2018-09-12T21:05:16.207Z,20.50
2018-09-12T21:07:44.594Z,20.40
2018-09-12T21:10:12.946Z,20.40
2018-09-12T21:12:46.376Z,20.40
2018-09-12T21:15:14.613Z,20.40
2018-09-12T21:20:23.322Z,20.40
2018-09-12T21:22:52.158Z,20.40
2018-09-12T21:25:20.933Z,20.30
2018-09-12T21:27:49.195Z,20.30
2018-09-12T21:30:17.802Z,20.30
2018-09-12T21:32:46.714Z,20.20
2018-09-12T21:35:15.001Z,20.20
2018-09-12T21:37:49.652Z,20.10
2018-09-12T21:40:18.120Z,20.10
2018-09-12T21:42:46.521Z,20.00
2018-09-12T21:45:14.813Z,20.10
2018-09-12T21:47:43.075Z,20.10
2018-09-12T21:50:11.359Z,20.10
2018-09-12T21:52:39.785Z,19.90
2018-09-12T21:55:08.245Z,19.90
2018-09-12T21:57:36.510Z,19.90
2018-09-12T22:00:05.770Z,19.90
2018-09-12T22:02:34.062Z,19.80
2018-09-12T22:05:02.321Z,19.90
2018-09-12T22:07:31.138Z,19.80
2018-09-12T22:09:59.503Z,19.80
2018-09-12T22:12:27.741Z,19.70
2018-09-12T22:14:56.555Z,19.70
2018-09-12T22:17:25.046Z,19.60
2018-09-12T22:19:53.578Z,19.50
2018-09-12T22:22:22.277Z,19.50
2018-09-12T22:24:51.134Z,19.50
2018-09-12T22:27:19.393Z,19.50
2018-09-12T22:29:47.924Z,19.50
2018-09-12T22:32:16.165Z,19.50
2018-09-12T22:34:44.844Z,19.40
2018-09-12T22:37:13.130Z,19.40
2018-09-12T22:39:41.603Z,19.40
2018-09-12T22:42:09.917Z,19.40
2018-09-12T22:44:38.245Z,19.40
2018-09-12T22:47:06.554Z,19.40
2018-09-12T22:49:35.014Z,19.40
2018-09-12T22:52:03.557Z,19.30
2018-09-12T22:54:31.797Z,19.20
2018-09-12T22:57:00.048Z,19.10
2018-09-12T22:59:28.326Z,19.20
2018-09-12T23:01:56.585Z,19.10
2018-09-12T23:04:25.078Z,19.10
2018-09-12T23:06:53.398Z,19.20
2018-09-12T23:09:21.678Z,19.10
2018-09-12T23:11:49.958Z,19.00
2018-09-12T23:14:18.600Z,19.00
2018-09-12T23:16:46.848Z,19.00
2018-09-12T23:19:15.506Z,19.00
2018-09-12T23:21:43.776Z,19.00
2018-09-12T23:24:12.379Z,18.80
2018-09-12T23:26:40.621Z,18.80
2018-09-12T23:29:08.932Z,18.80
2018-09-12T23:31:37.446Z,18.80
2018-09-12T23:34:06.371Z,18.80
2018-09-12T23:36:34.602Z,18.80
2018-09-12T23:39:03.281Z,18.70
2018-09-12T23:41:31.546Z,18.70
2018-09-12T23:43:59.790Z,18.60
2018-09-12T23:46:28.050Z,18.60
2018-09-12T23:48:56.421Z,18.60
2018-09-12T23:53:58.862Z,18.50
2018-09-12T23:56:27.403Z,18.50
2018-09-12T23:58:55.645Z,18.60
